Terminal Aerodrome Forecast
Issued by NWS

Home | Current Version | Previous Version | Text Only | Print | Product List | Glossary On
Versions: 1 2 3 4 5 6 7 8 9 10 11 12 13 14 15 16 17
000
FTUS45 KREV 191800 RRA
TAFRNO
TAF
KRNO 191800Z 1918/2018 28009KT P6SM VCSH FEW050 BKN090
     FM192300 24011KT P6SM SCT090 BKN150
     FM200800 19012G20KT P6SM VCSH SCT020 OVC050
     FM201200 20010KT 2SM -SN OVC012=

USA.gov is the U.S. government's official web portal to all federal, state and local government web resources and services.